ウルムチ の空港の天気 - METARとTAF

ウルムチ地窩堡国際空港 ( ZWWW / URC ) - 中華人民共和国 新疆ウイグル自治区ウルムチ市
飛行場実況気象(Metar)
観測時間08/17 11:00 CST (08/17 03:00 UTC)
風向・風速東南東 3m/s
視程10km以上
天気現象
なし
気温23℃
湿度53%
気圧1012hPa
METARZWWW 170300Z 12003MPS 070V180 CAVOK 23/13 Q1012 NOSIG
過去の天気等 Google飛行場航空写真 Wunderground天気予報

過去48時間のMETAR

飛行場予報(TAF)
発表時間: 8/17 05:11 CST (8/16 21:11 UTC)
予報対象時間: 17日8時 CST ~ 18日8時 CST
風向・風速南西 4m/s
視程10km以上
なし
17日10時 CST ~ 17日11時 CST に徐々に
風向・風速北 4m/s
17日16時 CST ~ 17日17時 CST に徐々に
風向・風速西 5m/s 瞬間風速 10m/s
17日17時 CST ~ 17日21時 CST に一時的に
風向・風速西 10m/s 瞬間風速 15m/s
視程2,500m
天気現象砂塵
少しの積乱雲 雲底高度 1,220m
17日21時 CST ~ 17日22時 CST に徐々に
視程10km以上
天気現象弱い雨
全天の8割程度の雲 雲底高度 1,220m
TAF ZWWW 162111Z 1700/1724 22004MPS CAVOK TX29/1706Z TN18/1724Z
BECMG 1702/1703 36004MPS
BECMG 1708/1709 28005G10MPS
TEMPO 1709/1713 28010G15MPS 2500 SA FEW040CB
BECMG 1713/1714 9999 -RA BKN040